Time;durP1;ratioP1;P1;durP2;ratioP2;P2;SDS_P1;SDS_P2;PMS_P1;PMS_P2;Temp;Humidity;BMP_temperature;BMP_pressure;BME280_temperature;BME280_humidity;BME280_pressure;Samples;Min_cycle;Max_cycle;Signal;HPM_P1;HPM_P2
2021/11/15 00:02:16;;;;;;;;;;;20.70;62.40;;;;;;4990562;28;1356;-69
2021/11/15 00:04:42;;;;;;;;;;;20.70;62.40;;;;;;5004809;28;1335;-69
2021/11/15 00:07:07;;;;;;;;;;;20.70;62.40;;;;;;5013082;28;1256;-68
2021/11/15 00:09:33;;;;;;;;;;;20.70;62.50;;;;;;5011562;28;1232;-69
2021/11/15 00:12:00;;;;;;;;;;;20.70;62.50;;;;;;5012775;28;1406;-69
2021/11/15 00:14:25;;;;;;;;;;;20.70;62.60;;;;;;5013076;28;1922;-69
2021/11/15 00:16:51;;;;;;;;;;;20.70;62.60;;;;;;5013148;28;1489;-69
2021/11/15 00:19:16;;;;;;;;;;;20.70;62.60;;;;;;5001900;28;1709;-69
2021/11/15 00:21:41;;;;;;;;;;;20.70;62.70;;;;;;5010674;28;1277;-68
2021/11/15 00:24:07;;;;;;;;;;;20.70;62.70;;;;;;5011444;28;1064;-68
2021/11/15 00:26:32;;;;;;;;;;;20.70;62.70;;;;;;5011790;28;1330;-69
2021/11/15 00:28:58;;;;;;;;;;;20.60;62.70;;;;;;5011766;28;1290;-69
2021/11/15 00:31:24;;;;;;;;;;;20.70;62.80;;;;;;5012635;28;1412;-69
2021/11/15 00:33:50;;;;;;;;;;;20.60;62.70;;;;;;5012858;28;1056;-69
2021/11/15 00:36:15;;;;;;;;;;;20.60;62.80;;;;;;5013218;28;1951;-68
2021/11/15 00:38:41;;;;;;;;;;;20.60;62.80;;;;;;5001723;28;1274;-69
2021/11/15 00:41:06;;;;;;;;;;;20.60;62.80;;;;;;5010188;28;1746;-69
2021/11/15 00:43:31;;;;;;;;;;;20.60;62.90;;;;;;5012812;28;1132;-69
2021/11/15 00:45:57;;;;;;;;;;;20.60;62.90;;;;;;4999658;28;1151;-68
2021/11/15 00:48:22;;;;;;;;;;;20.60;62.90;;;;;;5012690;28;1328;-68
2021/11/15 00:50:48;;;;;;;;;;;20.60;62.90;;;;;;5013013;28;1326;-69
2021/11/15 00:53:13;;;;;;;;;;;20.60;63.00;;;;;;5015072;28;1351;-69
2021/11/15 00:55:39;;;;;;;;;;;20.60;63.00;;;;;;5016382;28;1894;-68
2021/11/15 00:58:05;;;;;;;;;;;20.60;63.00;;;;;;5016347;28;1384;-69
2021/11/15 01:00:31;;;;;;;;;;;20.60;63.00;;;;;;5016866;28;1301;-69
2021/11/15 01:02:57;;;;;;;;;;;20.50;63.00;;;;;;5014867;28;1338;-69
2021/11/15 01:05:22;;;;;;;;;;;20.50;63.00;;;;;;5016200;28;1379;-69
2021/11/15 01:07:48;;;;;;;;;;;20.50;63.00;;;;;;5014723;28;1299;-68
2021/11/15 01:10:14;;;;;;;;;;;20.50;63.00;;;;;;5015025;28;1410;-68
2021/11/15 01:12:39;;;;;;;;;;;20.50;63.10;;;;;;5015996;28;1092;-68
2021/11/15 01:15:05;;;;;;;;;;;20.50;63.10;;;;;;5016173;28;1902;-69
2021/11/15 01:17:31;;;;;;;;;;;20.50;63.10;;;;;;5016082;28;1304;-69
2021/11/15 01:19:56;;;;;;;;;;;20.50;63.10;;;;;;5016005;28;1706;-68
2021/11/15 01:22:22;;;;;;;;;;;20.50;63.10;;;;;;5014601;28;1357;-69
2021/11/15 01:24:47;;;;;;;;;;;20.50;63.20;;;;;;5015827;28;1131;-69
2021/11/15 01:27:13;;;;;;;;;;;20.50;63.20;;;;;;5014883;28;1338;-68
2021/11/15 01:29:38;;;;;;;;;;;20.50;63.20;;;;;;5015767;28;1284;-68
2021/11/15 01:32:04;;;;;;;;;;;20.50;63.20;;;;;;5016051;28;1324;-69
2021/11/15 01:34:29;;;;;;;;;;;20.40;63.20;;;;;;5015995;28;1961;-69
2021/11/15 01:36:55;;;;;;;;;;;20.50;63.30;;;;;;5015502;28;1092;-68
2021/11/15 01:39:20;;;;;;;;;;;20.40;63.20;;;;;;5002713;28;1441;-69
2021/11/15 01:41:45;;;;;;;;;;;20.40;63.20;;;;;;5015485;28;1282;-69
2021/11/15 01:44:11;;;;;;;;;;;20.40;64.00;;;;;;5015752;28;1309;-68
2021/11/15 01:46:36;;;;;;;;;;;20.40;63.30;;;;;;5015770;28;1349;-69
2021/11/15 01:49:02;;;;;;;;;;;20.40;63.30;;;;;;5015438;28;1341;-69
2021/11/15 01:51:27;;;;;;;;;;;20.40;63.30;;;;;;5013782;28;1104;-69
2021/11/15 01:53:53;;;;;;;;;;;20.40;63.30;;;;;;5012439;28;1120;-68
2021/11/15 01:56:18;;;;;;;;;;;20.40;63.40;;;;;;5004891;28;1965;-69
2021/11/15 01:58:44;;;;;;;;;;;20.40;63.40;;;;;;5013889;28;1275;-68
2021/11/15 02:01:09;;;;;;;;;;;20.40;63.40;;;;;;5015133;28;1076;-68
2021/11/15 02:03:34;;;;;;;;;;;20.40;63.40;;;;;;5015225;28;1257;-69
2021/11/15 02:06:00;;;;;;;;;;;20.40;63.40;;;;;;5015048;28;1143;-68
2021/11/15 02:08:26;;;;;;;;;;;20.40;63.50;;;;;;5014990;28;1318;-68
2021/11/15 02:10:51;;;;;;;;;;;20.40;63.50;;;;;;5006125;28;1088;-69
2021/11/15 02:13:17;;;;;;;;;;;20.40;63.50;;;;;;5009490;28;1257;-68
2021/11/15 02:15:42;;;;;;;;;;;20.40;63.50;;;;;;5015018;28;1910;-69
2021/11/15 02:18:08;;;;;;;;;;;20.40;63.50;;;;;;5013725;28;1225;-69
2021/11/15 02:20:47;;;;;;;;;;;20.40;63.50;;;;;;5003340;28;1357;-69
2021/11/15 02:23:12;;;;;;;;;;;20.40;63.50;;;;;;5014959;28;1399;-68
2021/11/15 02:25:38;;;;;;;;;;;20.40;63.60;;;;;;5014945;28;1276;-69
2021/11/15 02:28:03;;;;;;;;;;;20.40;63.60;;;;;;5013876;28;1281;-69
2021/11/15 02:30:29;;;;;;;;;;;20.40;63.60;;;;;;5014828;28;1104;-68
2021/11/15 02:32:54;;;;;;;;;;;20.30;63.50;;;;;;5014450;28;1353;-68
2021/11/15 02:35:21;;;;;;;;;;;20.30;63.50;;;;;;5003466;28;1902;-68
2021/11/15 02:37:47;;;;;;;;;;;20.30;63.60;;;;;;5010447;28;1358;-68
2021/11/15 02:40:13;;;;;;;;;;;20.30;63.60;;;;;;5013502;28;1300;-69
2021/11/15 02:42:38;;;;;;;;;;;20.30;63.60;;;;;;5001088;28;1025;-69
2021/11/15 02:45:04;;;;;;;;;;;20.30;63.60;;;;;;5030055;28;1281;-69
2021/11/15 02:47:29;;;;;;;;;;;20.30;63.60;;;;;;5014525;28;1269;-70
2021/11/15 02:49:56;;;;;;;;;;;20.30;63.60;;;;;;5013167;28;1289;-68
2021/11/15 02:52:21;;;;;;;;;;;20.30;63.70;;;;;;5014043;28;1380;-69
2021/11/15 02:54:46;;;;;;;;;;;20.30;63.70;;;;;;5012985;28;1894;-69
2021/11/15 02:57:15;;;;;;;;;;;20.30;63.70;;;;;;5014609;28;1395;-68
2021/11/15 02:59:41;;;;;;;;;;;20.30;63.70;;;;;;5014089;28;1318;-67
2021/11/15 03:02:06;;;;;;;;;;;20.30;63.70;;;;;;5014013;28;1419;-68
2021/11/15 03:04:32;;;;;;;;;;;20.30;63.70;;;;;;5013771;28;1333;-68
2021/11/15 03:06:57;;;;;;;;;;;20.30;63.70;;;;;;5014009;28;1299;-68
2021/11/15 03:09:23;;;;;;;;;;;20.30;63.70;;;;;;5014267;28;1328;-69
2021/11/15 03:11:48;;;;;;;;;;;20.30;63.70;;;;;;5013825;28;1299;-68
2021/11/15 03:14:14;;;;;;;;;;;20.30;63.80;;;;;;5013343;28;1898;-68
2021/11/15 03:16:39;;;;;;;;;;;20.30;63.80;;;;;;5013956;28;1270;-68
2021/11/15 03:19:04;;;;;;;;;;;20.30;63.80;;;;;;5013514;28;1407;-68
2021/11/15 03:21:30;;;;;;;;;;;20.30;63.80;;;;;;5013487;28;1416;-68
2021/11/15 03:23:55;;;;;;;;;;;20.30;63.80;;;;;;5013825;28;1261;-68
2021/11/15 03:26:21;;;;;;;;;;;20.20;63.70;;;;;;5013789;28;1132;-68
2021/11/15 03:28:47;;;;;;;;;;;20.20;63.70;;;;;;5012719;28;1354;-68
2021/11/15 03:31:20;;;;;;;;;;;20.20;63.80;;;;;;5028467;28;1567;-68
2021/11/15 03:33:46;;;;;;;;;;;20.20;63.80;;;;;;5012353;28;1388;-68
2021/11/15 03:36:11;;;;;;;;;;;20.20;63.80;;;;;;5013449;28;1997;-68
2021/11/15 03:38:37;;;;;;;;;;;20.20;63.80;;;;;;5013576;28;1272;-68
2021/11/15 03:41:03;;;;;;;;;;;20.20;63.80;;;;;;5013156;28;1355;-68
2021/11/15 03:43:28;;;;;;;;;;;20.20;63.80;;;;;;5012321;28;1285;-68
2021/11/15 03:45:54;;;;;;;;;;;20.20;63.80;;;;;;5012380;28;1276;-68
2021/11/15 03:48:22;;;;;;;;;;;20.20;63.80;;;;;;5013119;28;1347;-68
2021/11/15 03:50:48;;;;;;;;;;;20.20;63.90;;;;;;5013173;28;1405;-68
2021/11/15 03:53:13;;;;;;;;;;;20.20;63.90;;;;;;5012194;28;1143;-68
2021/11/15 03:55:39;;;;;;;;;;;20.20;63.90;;;;;;5013206;28;1894;-68
2021/11/15 03:58:05;;;;;;;;;;;20.20;63.90;;;;;;5012732;28;1403;-68
2021/11/15 04:00:31;;;;;;;;;;;20.20;63.90;;;;;;5001712;22;3641;-72
2021/11/15 04:03:00;;;;;;;;;;;20.20;63.90;;;;;;4963066;28;1399;-69
2021/11/15 04:05:28;;;;;;;;;;;20.20;63.90;;;;;;4981028;28;1723;-71
2021/11/15 04:07:53;;;;;;;;;;;20.20;63.90;;;;;;4974377;28;1370;-70
2021/11/15 04:10:20;;;;;;;;;;;20.20;63.90;;;;;;4959301;28;1464;-70
2021/11/15 04:12:46;;;;;;;;;;;20.20;63.90;;;;;;4936922;29;1365;-70
2021/11/15 04:15:12;;;;;;;;;;;20.20;63.90;;;;;;4953179;29;1910;-67
2021/11/15 04:17:37;;;;;;;;;;;20.20;64.00;;;;;;4954626;29;1402;-69
2021/11/15 04:20:03;;;;;;;;;;;20.10;63.90;;;;;;4954028;28;1296;-69
2021/11/15 04:22:28;;;;;;;;;;;20.20;64.00;;;;;;4953020;29;1438;-69
2021/11/15 04:24:54;;;;;;;;;;;20.10;64.00;;;;;;4954422;28;1335;-69
2021/11/15 04:27:19;;;;;;;;;;;20.20;64.00;;;;;;4957540;29;1365;-68
2021/11/15 04:29:45;;;;;;;;;;;20.10;63.90;;;;;;4958300;28;1363;-70
2021/11/15 04:32:10;;;;;;;;;;;20.20;64.00;;;;;;4957940;28;1319;-69
2021/11/15 04:34:36;;;;;;;;;;;20.10;64.00;;;;;;4940805;29;1952;-70
2021/11/15 04:37:01;;;;;;;;;;;20.10;64.00;;;;;;4958287;28;1415;-69
2021/11/15 04:39:29;;;;;;;;;;;20.10;64.00;;;;;;4958090;28;1382;-69
2021/11/15 04:41:54;;;;;;;;;;;20.10;64.00;;;;;;4956671;29;1350;-70
2021/11/15 04:44:19;;;;;;;;;;;20.10;64.00;;;;;;4956702;29;1371;-71
2021/11/15 04:46:45;;;;;;;;;;;20.10;64.00;;;;;;4958068;29;1292;-69
2021/11/15 04:49:10;;;;;;;;;;;20.10;64.00;;;;;;4957306;28;1703;-71
2021/11/15 04:51:36;;;;;;;;;;;20.10;63.90;;;;;;4957878;29;1311;-71
2021/11/15 04:54:01;;;;;;;;;;;20.10;63.90;;;;;;4957913;29;1365;-71
2021/11/15 04:56:27;;;;;;;;;;;20.20;63.90;;;;;;4958011;29;1910;-69
2021/11/15 04:58:52;;;;;;;;;;;20.20;63.80;;;;;;4957612;28;1312;-71
2021/11/15 05:01:18;;;;;;;;;;;20.20;63.80;;;;;;4953425;29;1351;-70
2021/11/15 05:03:43;;;;;;;;;;;20.20;63.60;;;;;;4956535;28;1371;-69
2021/11/15 05:06:09;;;;;;;;;;;20.30;63.60;;;;;;4956606;28;1240;-69
2021/11/15 05:08:34;;;;;;;;;;;20.30;63.50;;;;;;4958772;28;1390;-70
2021/11/15 05:11:00;;;;;;;;;;;20.30;63.40;;;;;;4957600;29;1252;-69
2021/11/15 05:13:25;;;;;;;;;;;20.40;63.40;;;;;;4956505;28;1311;-70
2021/11/15 05:15:51;;;;;;;;;;;20.40;63.20;;;;;;4957048;28;1898;-69
2021/11/15 05:18:16;;;;;;;;;;;20.40;63.10;;;;;;4965548;28;1454;-69
2021/11/15 05:20:42;;;;;;;;;;;20.40;63.00;;;;;;4966068;28;1250;-69
2021/11/15 05:23:07;;;;;;;;;;;20.40;63.00;;;;;;4962369;28;1518;-70
2021/11/15 05:25:33;;;;;;;;;;;20.40;62.90;;;;;;4967052;28;1402;-71
2021/11/15 05:27:58;;;;;;;;;;;20.50;62.90;;;;;;4964408;28;1227;-70
2021/11/15 05:30:24;;;;;;;;;;;20.50;62.80;;;;;;4964819;28;1224;-69
2021/11/15 05:32:51;;;;;;;;;;;20.50;62.70;;;;;;4946193;28;1195;-69
2021/11/15 05:35:16;;;;;;;;;;;20.50;62.70;;;;;;4966191;28;1965;-71
2021/11/15 05:37:42;;;;;;;;;;;20.50;62.70;;;;;;4965748;28;1445;-70
2021/11/15 05:40:08;;;;;;;;;;;20.50;62.60;;;;;;4964662;28;1343;-71
2021/11/15 05:42:33;;;;;;;;;;;20.50;62.50;;;;;;4963646;28;1281;-70
2021/11/15 05:44:59;;;;;;;;;;;20.60;62.50;;;;;;4963448;28;1198;-69
2021/11/15 05:47:24;;;;;;;;;;;20.60;62.50;;;;;;4966975;28;1277;-69
2021/11/15 05:49:49;;;;;;;;;;;20.50;62.40;;;;;;4965675;28;1265;-69
2021/11/15 05:52:17;;;;;;;;;;;20.60;62.40;;;;;;4962517;28;1377;-70
2021/11/15 05:54:42;;;;;;;;;;;20.60;62.40;;;;;;4956090;29;1903;-70
2021/11/15 05:57:08;;;;;;;;;;;20.60;62.30;;;;;;4940199;29;1354;-71
2021/11/15 05:59:33;;;;;;;;;;;20.60;62.30;;;;;;4956717;28;1699;-70
2021/11/15 06:01:59;;;;;;;;;;;20.60;62.30;;;;;;4955644;29;1105;-71
2021/11/15 06:04:24;;;;;;;;;;;20.60;62.20;;;;;;4962293;28;1439;-70
2021/11/15 06:06:51;;;;;;;;;;;20.60;62.20;;;;;;4960783;28;1437;-72
2021/11/15 06:09:17;;;;;;;;;;;20.60;62.20;;;;;;4957118;28;1658;-71
2021/11/15 06:11:42;;;;;;;;;;;20.60;62.20;;;;;;4956718;29;1459;-71
2021/11/15 06:14:08;;;;;;;;;;;20.70;62.20;;;;;;4956843;29;1356;-71
2021/11/15 06:16:33;;;;;;;;;;;20.60;62.20;;;;;;4955718;29;1956;-70
2021/11/15 06:18:59;;;;;;;;;;;20.60;62.10;;;;;;4956908;28;1455;-70
2021/11/15 06:21:24;;;;;;;;;;;20.70;62.10;;;;;;4967081;28;1276;-71
2021/11/15 06:23:50;;;;;;;;;;;20.60;62.10;;;;;;4956818;29;872;-72
2021/11/15 06:26:15;;;;;;;;;;;20.70;62.10;;;;;;4956788;29;1486;-70
2021/11/15 06:28:41;;;;;;;;;;;20.70;62.10;;;;;;4956414;28;1334;-71
2021/11/15 06:31:11;;;;;;;;;;;20.60;62.00;;;;;;4956367;28;1403;-71
2021/11/15 06:33:36;;;;;;;;;;;20.60;62.80;;;;;;4939783;29;1423;-71
2021/11/15 06:36:02;;;;;;;;;;;20.70;62.00;;;;;;4956531;29;1964;-69
2021/11/15 06:38:27;;;;;;;;;;;20.70;62.00;;;;;;4956501;28;1600;-68
2021/11/15 06:40:52;;;;;;;;;;;20.70;62.00;;;;;;4956183;29;1393;-70
2021/11/15 06:43:18;;;;;;;;;;;20.70;62.00;;;;;;4955054;29;1611;-69
2021/11/15 06:45:43;;;;;;;;;;;20.70;62.00;;;;;;4956446;29;1733;-68
2021/11/15 06:48:09;;;;;;;;;;;20.70;62.00;;;;;;4956006;28;1597;-68
2021/11/15 06:50:34;;;;;;;;;;;20.70;62.00;;;;;;4955908;28;1872;-69
2021/11/15 06:53:00;;;;;;;;;;;20.70;61.90;;;;;;4956195;29;1657;-70
2021/11/15 06:55:25;;;;;;;;;;;20.70;61.90;;;;;;4956100;29;1965;-68
2021/11/15 06:57:51;;;;;;;;;;;20.70;61.90;;;;;;4956187;28;797;-69
2021/11/15 07:00:18;;;;;;;;;;;20.70;61.90;;;;;;4954846;28;1507;-68
2021/11/15 07:02:44;;;;;;;;;;;20.70;61.90;;;;;;4954749;29;1074;-68
2021/11/15 07:05:11;;;;;;;;;;;20.70;61.90;;;;;;4947752;28;1692;-69
2021/11/15 07:07:40;;;;;;;;;;;20.70;61.90;;;;;;4956406;29;1630;-70
2021/11/15 07:10:06;;;;;;;;;;;20.70;61.90;;;;;;4954617;28;1557;-70
2021/11/15 07:12:32;;;;;;;;;;;20.70;61.90;;;;;;4955832;29;1690;-69
2021/11/15 07:14:57;;;;;;;;;;;20.70;61.90;;;;;;4954600;29;1972;-70
2021/11/15 07:17:22;;;;;;;;;;;20.70;61.80;;;;;;4946779;28;2262;-67
2021/11/15 07:19:48;;;;;;;;;;;20.70;61.80;;;;;;4947827;28;1970;-67
2021/11/15 07:22:13;;;;;;;;;;;20.70;61.90;;;;;;4955847;28;1533;-67
2021/11/15 07:24:39;;;;;;;;;;;20.70;61.80;;;;;;4950787;29;2029;-66
2021/11/15 07:27:04;;;;;;;;;;;20.70;61.80;;;;;;4954602;29;1380;-67
2021/11/15 07:29:30;;;;;;;;;;;20.70;61.80;;;;;;4952764;29;1996;-67
2021/11/15 07:31:55;;;;;;;;;;;20.70;61.80;;;;;;4954160;29;1718;-68
2021/11/15 07:34:26;;;;;;;;;;;20.70;61.80;;;;;;4954166;29;1971;-67
2021/11/15 07:36:52;;;;;;;;;;;20.70;61.80;;;;;;4954774;29;1568;-68
2021/11/15 07:39:17;;;;;;;;;;;20.70;61.80;;;;;;4954496;28;1821;-68
2021/11/15 07:41:43;;;;;;;;;;;20.80;61.80;;;;;;4954298;29;1544;-67
2021/11/15 07:44:08;;;;;;;;;;;20.80;61.60;;;;;;4954361;29;1257;-69
2021/11/15 07:46:34;;;;;;;;;;;20.90;61.40;;;;;;4954190;29;1692;-68
2021/11/15 07:48:59;;;;;;;;;;;21.00;61.30;;;;;;4954196;28;1576;-68
2021/11/15 07:51:25;;;;;;;;;;;21.10;61.20;;;;;;4954159;29;1371;-68
2021/11/15 07:53:51;;;;;;;;;;;21.20;60.90;;;;;;4954377;29;1613;-68
2021/11/15 07:56:17;;;;;;;;;;;21.30;60.70;;;;;;4954054;29;1891;-67
2021/11/15 07:58:42;;;;;;;;;;;21.40;60.50;;;;;;4954673;28;1447;-69
2021/11/15 08:01:08;;;;;;;;;;;21.40;60.20;;;;;;4953123;28;2285;-69
2021/11/15 08:03:33;;;;;;;;;;;21.50;60.00;;;;;;4954891;29;1558;-69
2021/11/15 08:05:59;;;;;;;;;;;21.60;60.50;;;;;;4959951;28;1481;-72
2021/11/15 08:08:25;;;;;;;;;;;21.60;59.60;;;;;;4954894;28;1346;-70
2021/11/15 08:10:50;;;;;;;;;;;21.70;59.50;;;;;;4954673;29;1334;-70
2021/11/15 08:13:16;;;;;;;;;;;21.80;60.00;;;;;;4953865;29;1752;-71
2021/11/15 08:15:41;;;;;;;;;;;21.80;59.20;;;;;;4955078;28;1943;-69
2021/11/15 08:18:07;;;;;;;;;;;21.90;59.10;;;;;;4955095;29;1689;-69
2021/11/15 08:20:33;;;;;;;;;;;21.90;59.00;;;;;;4960706;28;1588;-69
2021/11/15 08:23:03;;;;;;;;;;;21.90;58.90;;;;;;4958462;28;1094;-69
2021/11/15 08:25:34;;;;;;;;;;;22.00;58.90;;;;;;4954785;29;1670;-69
2021/11/15 08:27:59;;;;;;;;;;;22.00;58.70;;;;;;4954906;29;1344;-69
2021/11/15 08:30:25;;;;;;;;;;;22.10;58.70;;;;;;4954772;28;1426;-68
2021/11/15 08:32:50;;;;;;;;;;;22.10;58.60;;;;;;4954628;29;1454;-69
2021/11/15 08:35:17;;;;;;;;;;;22.10;58.50;;;;;;4953476;28;1902;-68
2021/11/15 08:37:58;;;;;;;;;;;22.10;58.50;;;;;;4953637;29;1755;-68
2021/11/15 08:40:23;;;;;;;;;;;22.20;58.40;;;;;;4953515;28;1327;-68
2021/11/15 08:42:49;;;;;;;;;;;22.20;58.40;;;;;;4954215;29;1468;-69
2021/11/15 08:45:17;;;;;;;;;;;22.30;58.40;;;;;;4954823;29;1644;-68
2021/11/15 08:47:42;;;;;;;;;;;22.30;58.30;;;;;;4954741;29;1724;-68
2021/11/15 08:50:07;;;;;;;;;;;22.30;58.30;;;;;;4954533;28;1425;-68
2021/11/15 08:52:33;;;;;;;;;;;22.30;58.30;;;;;;4954127;29;1601;-68
2021/11/15 08:54:58;;;;;;;;;;;22.30;58.20;;;;;;4954536;29;1894;-69
2021/11/15 08:57:24;;;;;;;;;;;22.40;58.20;;;;;;4954692;28;1602;-68
2021/11/15 08:59:53;;;;;;;;;;;22.40;58.20;;;;;;4954431;28;1425;-70
2021/11/15 09:02:18;;;;;;;;;;;22.40;58.20;;;;;;4937028;29;1315;-70
2021/11/15 09:04:44;;;;;;;;;;;22.40;58.10;;;;;;4945179;28;1376;-71
2021/11/15 09:07:09;;;;;;;;;;;22.40;58.00;;;;;;4955651;28;1618;-71
2021/11/15 09:09:35;;;;;;;;;;;22.40;58.00;;;;;;4936175;29;2066;-69
2021/11/15 09:12:02;;;;;;;;;;;22.50;58.10;;;;;;4953685;28;1555;-70
2021/11/15 09:14:28;;;;;;;;;;;22.50;58.00;;;;;;4956747;28;1974;-70
2021/11/15 09:16:53;;;;;;;;;;;22.50;58.10;;;;;;4956850;28;1405;-69
2021/11/15 09:19:19;;;;;;;;;;;22.50;58.00;;;;;;4957840;28;1612;-70
2021/11/15 09:21:44;;;;;;;;;;;22.50;58.00;;;;;;4959660;28;1610;-70
2021/11/15 09:24:10;;;;;;;;;;;22.50;58.00;;;;;;4956769;29;1520;-70
2021/11/15 09:26:36;;;;;;;;;;;22.50;58.00;;;;;;4958051;29;1395;-70
2021/11/15 09:29:01;;;;;;;;;;;22.50;58.00;;;;;;4957746;28;1727;-71
2021/11/15 09:31:27;;;;;;;;;;;22.50;57.90;;;;;;4956664;28;1614;-71
2021/11/15 09:33:52;;;;;;;;;;;22.50;57.90;;;;;;4957769;29;1462;-70
2021/11/15 09:36:22;;;;;;;;;;;22.60;58.00;;;;;;4940396;29;1895;-71
2021/11/15 09:38:48;;;;;;;;;;;22.60;58.00;;;;;;4956527;29;1154;-71
2021/11/15 09:41:13;;;;;;;;;;;22.60;58.00;;;;;;4956285;28;1758;-71
2021/11/15 09:43:39;;;;;;;;;;;22.60;57.90;;;;;;4958012;29;1361;-69
2021/11/15 09:46:08;;;;;;;;;;;22.60;58.00;;;;;;4958166;29;1427;-69
2021/11/15 09:48:35;;;;;;;;;;;22.60;57.90;;;;;;4956303;28;1595;-71
2021/11/15 09:51:01;;;;;;;;;;;22.60;57.90;;;;;;4955946;29;1421;-69
2021/11/15 09:53:26;;;;;;;;;;;22.60;57.90;;;;;;4957539;28;1393;-70
2021/11/15 09:55:52;;;;;;;;;;;22.60;57.90;;;;;;4956298;29;1900;-69
2021/11/15 09:58:17;;;;;;;;;;;22.60;58.00;;;;;;4957384;29;812;-70
2021/11/15 10:00:44;;;;;;;;;;;22.70;58.00;;;;;;4977991;23;2590;-68
2021/11/15 10:03:10;;;;;;;;;;;22.60;57.90;;;;;;4974941;28;1505;-67
2021/11/15 10:05:35;;;;;;;;;;;22.70;57.90;;;;;;4991026;28;1408;-67
2021/11/15 10:08:04;;;;;;;;;;;22.70;57.90;;;;;;4976514;28;1728;-67
2021/11/15 10:10:38;;;;;;;;;;;22.60;57.90;;;;;;4974966;28;1367;-67
2021/11/15 10:13:12;;;;;;;;;;;22.70;58.00;;;;;;4976030;28;1463;-68
2021/11/15 10:15:51;;;;;;;;;;;22.70;58.00;;;;;;4976033;28;1970;-68
2021/11/15 10:18:21;;;;;;;;;;;22.70;58.00;;;;;;4975166;28;1667;-67
2021/11/15 10:20:50;;;;;;;;;;;22.70;58.00;;;;;;4975858;28;1407;-67
2021/11/15 10:23:25;;;;;;;;;;;22.70;57.90;;;;;;4975308;28;1646;-67
2021/11/15 10:25:51;;;;;;;;;;;22.60;57.80;;;;;;4974905;28;1396;-67
2021/11/15 10:28:20;;;;;;;;;;;22.60;57.80;;;;;;4976108;28;1251;-66
2021/11/15 10:30:46;;;;;;;;;;;22.60;57.80;;;;;;4957468;28;1465;-66
2021/11/15 10:33:11;;;;;;;;;;;22.60;57.90;;;;;;4968760;28;2463;-67
2021/11/15 10:35:41;;;;;;;;;;;22.60;57.90;;;;;;4968896;28;1890;-66
2021/11/15 10:38:06;;;;;;;;;;;22.60;57.90;;;;;;4973445;28;1282;-69
2021/11/15 10:40:34;;;;;;;;;;;22.60;58.00;;;;;;4967889;28;1568;-68
2021/11/15 10:43:03;;;;;;;;;;;22.60;58.00;;;;;;4965036;28;1249;-68
2021/11/15 10:45:28;;;;;;;;;;;22.60;58.00;;;;;;4968378;28;1423;-68
2021/11/15 10:47:55;;;;;;;;;;;22.60;58.70;;;;;;4970380;28;2081;-69
2021/11/15 10:50:23;;;;;;;;;;;22.60;58.10;;;;;;4970223;28;1407;-67
2021/11/15 10:52:55;;;;;;;;;;;22.50;58.10;;;;;;4971150;28;1324;-68
2021/11/15 10:55:20;;;;;;;;;;;22.50;58.10;;;;;;4965378;28;1934;-69
2021/11/15 10:57:48;;;;;;;;;;;22.50;58.10;;;;;;4949052;28;1229;-67
2021/11/15 11:00:15;;;;;;;;;;;22.50;58.10;;;;;;4965788;28;1299;-67
2021/11/15 11:02:41;;;;;;;;;;;22.50;58.20;;;;;;4966198;28;1225;-68
2021/11/15 11:05:07;;;;;;;;;;;22.50;58.20;;;;;;4965335;28;1324;-67
2021/11/15 11:07:32;;;;;;;;;;;22.50;58.20;;;;;;4974335;28;1290;-69
2021/11/15 11:10:01;;;;;;;;;;;22.50;58.20;;;;;;4965305;28;1302;-68
2021/11/15 11:12:34;;;;;;;;;;;22.50;58.20;;;;;;4980087;28;1373;-68
2021/11/15 11:15:30;;;;;;;;;;;22.50;58.20;;;;;;4967670;28;1953;-68
2021/11/15 11:17:59;;;;;;;;;;;22.50;58.20;;;;;;4962683;28;1452;-67
2021/11/15 11:23:19;;;;;;;;;;;22.50;58.20;;;;;;4974630;28;1670;-67
2021/11/15 11:25:44;;;;;;;;;;;22.50;58.20;;;;;;4973905;28;1361;-69
2021/11/15 11:28:29;;;;;;;;;;;22.50;58.20;;;;;;4990079;28;1717;-68
2021/11/15 11:30:54;;;;;;;;;;;22.50;58.20;;;;;;4974344;28;1227;-68
2021/11/15 11:33:20;;;;;;;;;;;22.50;58.20;;;;;;4956910;28;1267;-68
2021/11/15 11:35:45;;;;;;;;;;;22.50;58.20;;;;;;4974255;28;1899;-68
2021/11/15 11:38:11;;;;;;;;;;;22.50;58.20;;;;;;4957372;28;1594;-70
2021/11/15 11:40:36;;;;;;;;;;;22.50;58.20;;;;;;4973075;28;1458;-69
2021/11/15 11:43:01;;;;;;;;;;;22.60;58.20;;;;;;4972467;28;1396;-69
2021/11/15 11:45:27;;;;;;;;;;;22.50;58.10;;;;;;4972245;28;1305;-69
2021/11/15 11:47:53;;;;;;;;;;;22.50;58.10;;;;;;4973431;28;1372;-69
2021/11/15 11:50:19;;;;;;;;;;;22.60;58.20;;;;;;4972982;28;1265;-70
2021/11/15 11:52:45;;;;;;;;;;;22.60;58.20;;;;;;4974503;28;1291;-70
2021/11/15 11:55:21;;;;;;;;;;;22.60;58.20;;;;;;4972931;28;1967;-69
2021/11/15 11:57:47;;;;;;;;;;;22.60;58.20;;;;;;4974532;28;1383;-70
2021/11/15 12:00:14;;;;;;;;;;;22.60;58.20;;;;;;4969003;28;2129;-70
2021/11/15 12:02:40;;;;;;;;;;;22.60;58.10;;;;;;4973575;28;1976;-70
2021/11/15 12:05:07;;;;;;;;;;;22.60;58.20;;;;;;4971845;28;1374;-70
2021/11/15 12:07:51;;;;;;;;;;;22.60;58.20;;;;;;4971248;28;1559;-72
2021/11/15 12:10:33;;;;;;;;;;;22.60;58.20;;;;;;4969902;28;2045;-71
2021/11/15 12:12:59;;;;;;;;;;;22.60;58.20;;;;;;4971726;28;1264;-71
2021/11/15 12:15:45;;;;;;;;;;;22.50;58.10;;;;;;4974172;28;1973;-69
2021/11/15 12:18:10;;;;;;;;;;;22.50;58.20;;;;;;4973545;28;1419;-71
2021/11/15 12:20:56;;;;;;;;;;;22.50;58.20;;;;;;4980194;28;1704;-71
2021/11/15 12:23:21;;;;;;;;;;;22.50;58.20;;;;;;4953741;28;1796;-68
2021/11/15 12:25:59;;;;;;;;;;;22.50;58.20;;;;;;4973121;28;1381;-68
2021/11/15 12:28:28;;;;;;;;;;;22.50;58.20;;;;;;4974365;28;2249;-68
2021/11/15 12:30:54;;;;;;;;;;;22.50;58.30;;;;;;4956555;28;1419;-68
2021/11/15 12:33:19;;;;;;;;;;;22.50;58.30;;;;;;4973769;28;1386;-68
2021/11/15 12:35:49;;;;;;;;;;;22.50;58.30;;;;;;4974057;28;1910;-68
2021/11/15 12:38:33;;;;;;;;;;;22.50;58.30;;;;;;4974232;28;1386;-68
2021/11/15 12:40:58;;;;;;;;;;;22.50;58.30;;;;;;4973607;28;1699;-68
2021/11/15 12:43:24;;;;;;;;;;;22.50;58.30;;;;;;4973941;28;1277;-68
2021/11/15 12:46:09;;;;;;;;;;;22.50;58.40;;;;;;4973777;28;1407;-68
2021/11/15 12:48:36;;;;;;;;;;;22.50;58.40;;;;;;4977424;28;1688;-68
2021/11/15 12:51:17;;;;;;;;;;;22.50;58.50;;;;;;4977412;28;1560;-67
2021/11/15 12:53:44;;;;;;;;;;;22.40;58.50;;;;;;4976662;28;1453;-68
2021/11/15 12:56:10;;;;;;;;;;;22.40;58.50;;;;;;4977366;28;1969;-68
2021/11/15 12:58:36;;;;;;;;;;;22.40;58.50;;;;;;4977694;28;1490;-69
2021/11/15 13:01:01;;;;;;;;;;;22.40;58.50;;;;;;4977028;28;1408;-70
2021/11/15 13:03:27;;;;;;;;;;;22.40;58.60;;;;;;4976507;28;1514;-67
2021/11/15 13:05:52;;;;;;;;;;;22.40;58.60;;;;;;5001782;28;1216;-68
2021/11/15 13:08:17;;;;;;;;;;;22.40;58.60;;;;;;4976603;28;1372;-68
2021/11/15 13:10:44;;;;;;;;;;;22.30;58.70;;;;;;4977217;28;1312;-68
2021/11/15 13:13:10;;;;;;;;;;;22.30;58.70;;;;;;4959798;28;1326;-68
2021/11/15 13:15:35;;;;;;;;;;;22.30;58.80;;;;;;4956601;28;1887;-68
2021/11/15 13:18:00;;;;;;;;;;;22.30;58.80;;;;;;4970960;28;1758;-68
2021/11/15 13:20:26;;;;;;;;;;;22.30;58.80;;;;;;4974524;28;1737;-69
2021/11/15 13:22:52;;;;;;;;;;;22.30;58.90;;;;;;4972722;28;2429;-70
2021/11/15 13:25:18;;;;;;;;;;;22.30;58.90;;;;;;4956085;28;1822;-69
2021/11/15 13:27:43;;;;;;;;;;;22.20;58.90;;;;;;4986625;28;1314;-69
2021/11/15 13:30:14;;;;;;;;;;;22.20;58.90;;;;;;4975867;28;1639;-69
2021/11/15 13:32:42;;;;;;;;;;;22.20;59.00;;;;;;4976474;28;1626;-69
2021/11/15 13:35:08;;;;;;;;;;;22.20;59.00;;;;;;4976791;28;1890;-71
2021/11/15 13:37:33;;;;;;;;;;;22.20;59.00;;;;;;4976774;28;1217;-70
2021/11/15 13:40:00;;;;;;;;;;;22.20;59.00;;;;;;4991508;28;1371;-68
2021/11/15 13:42:26;;;;;;;;;;;22.20;59.10;;;;;;4974863;28;1118;-67
2021/11/15 13:44:51;;;;;;;;;;;22.20;59.10;;;;;;4975680;28;1404;-69
2021/11/15 13:47:17;;;;;;;;;;;22.20;59.10;;;;;;4988457;28;2197;-68
2021/11/15 13:49:43;;;;;;;;;;;22.10;59.10;;;;;;4975360;28;1398;-68
2021/11/15 13:52:10;;;;;;;;;;;22.10;59.20;;;;;;4973465;28;2270;-69
2021/11/15 13:54:36;;;;;;;;;;;22.10;59.20;;;;;;4976276;28;1973;-68
2021/11/15 13:57:05;;;;;;;;;;;22.10;59.20;;;;;;4975492;28;1373;-68
2021/11/15 13:59:30;;;;;;;;;;;22.10;59.20;;;;;;4974260;28;1593;-68
2021/11/15 14:01:55;;;;;;;;;;;22.10;59.30;;;;;;4968839;28;1834;-72
2021/11/15 14:04:21;;;;;;;;;;;22.10;59.30;;;;;;4973700;28;1518;-70
2021/11/15 14:06:46;;;;;;;;;;;22.10;59.30;;;;;;4970028;28;1150;-71
2021/11/15 14:09:12;;;;;;;;;;;22.00;59.30;;;;;;4970597;28;1471;-70
2021/11/15 14:11:37;;;;;;;;;;;22.00;59.30;;;;;;4968183;28;1203;-71
2021/11/15 14:14:03;;;;;;;;;;;22.00;59.30;;;;;;4972245;28;1269;-69
2021/11/15 14:16:28;;;;;;;;;;;22.00;59.40;;;;;;4982422;28;1962;-70
2021/11/15 14:18:54;;;;;;;;;;;22.00;59.40;;;;;;4967595;28;1311;-71
2021/11/15 14:21:20;;;;;;;;;;;22.00;59.40;;;;;;4984825;28;1288;-70
2021/11/15 14:23:46;;;;;;;;;;;22.00;59.40;;;;;;4966414;28;1277;-69
2021/11/15 14:26:11;;;;;;;;;;;22.00;59.40;;;;;;4968449;28;1930;-70
2021/11/15 14:28:37;;;;;;;;;;;22.00;59.50;;;;;;4971772;28;1276;-72
2021/11/15 14:31:02;;;;;;;;;;;22.00;59.50;;;;;;4971605;28;1312;-70